KALB

Albany International Airport

Albany, New York, USA
METAR KALB 181451Z 33017G22KT 10SM FEW047 SCT055 03/M09 A3035 RMK AO2 SLP278 T00331089 51016
Observed Flight Rules
Oct-18 @ 14:51 UTC (an hour ago) Visual Flight Rules
Wind Visibility Clouds
330° at 17 knots
 Gusting to 22 knots
10 miles
  • Few at 4,700' AGL
  • Scattered at 5,500' AGL
Temperatures Readings
Current 3°C / 37°F
Dewpoint -9°C / 16°F
Humidity 41%
Altimeter 30.35" Hg
Pressure 1027.8 hPa
Elevation 92
METAR KALB 181451Z 33017G22KT 10SM FEW047 SCT055 03/M09 A3035 RMK AO2 SLP278 T00331089 51016
Observed Flight Rules
Oct-18 @ 14:51 UTC
(an hour ago)
VFR
Wind Visibility
330° at 17 knots
 Gusting to 22 knots
10 miles
Clouds
  • Few at 4,700' AGL
  • Scattered at 5,500' AGL
Temperature Dewpoint
3°C / 37°F -9°C / 16°F
Humidity Altimeter Pressure
41% 30.35" Hg 1027.8 hPa